Time,TemperatureF,DewpointF,PressureIn,WindDirection,WindDirectionDegrees,WindSpeedMPH,WindSpeedGustMPH,Humidity,HourlyPrecipIn,Conditions,Clouds,dailyrainin,SoftwareType,DateUTC
2013-02-12 00:00:00,48.9,48.4,0.00,SW,220,0.0,0.0,98,0.00,,---,0.08,VWS V13.01,2013-02-12 05:00:00,
2013-02-12 00:02:00,48.9,48.4,0.00,SW,220,0.0,0.0,98,0.00,,---,0.00,VWS V13.01,2013-02-12 05:02:00,
2013-02-12 00:07:00,48.7,48.2,0.00,SW,220,0.0,0.0,98,0.00,,---,0.00,VWS V13.01,2013-02-12 05:07:00,
2013-02-12 00:12:00,48.6,48.0,0.00,SW,220,0.0,0.0,98,0.00,,---,0.00,VWS V13.01,2013-02-12 05:12:00,
2013-02-12 00:17:00,48.4,47.8,0.00,SW,220,0.0,0.0,98,0.00,,---,0.00,VWS V13.01,2013-02-12 05:17:00,
2013-02-12 00:22:00,48.4,47.8,0.00,SW,220,0.0,0.0,98,0.00,,---,0.00,VWS V13.01,2013-02-12 05:22:00,
2013-02-12 00:27:00,48.2,47.7,0.00,SW,220,0.0,0.0,98,0.00,,---,0.00,VWS V13.01,2013-02-12 05:27:00,
2013-02-12 00:32:00,48.2,47.7,0.00,WSW,257,0.0,0.0,98,0.00,,---,0.00,VWS V13.01,2013-02-12 05:32:00,
2013-02-12 00:37:00,47.8,47.3,0.00,WSW,257,0.0,0.0,98,0.00,,---,0.00,VWS V13.01,2013-02-12 05:37:00,
2013-02-12 00:42:00,47.7,47.1,0.00,WNW,288,0.0,0.0,98,0.00,,---,0.00,VWS V13.01,2013-02-12 05:42:00,
2013-02-12 00:47:00,47.5,47.0,0.00,NW,314,0.0,4.0,98,0.00,,---,0.00,VWS V13.01,2013-02-12 05:47:00,
2013-02-12 00:52:00,47.5,47.0,0.00,NW,319,2.7,4.0,98,0.00,,---,0.00,VWS V13.01,2013-02-12 05:52:00,
2013-02-12 00:57:00,47.5,47.0,0.00,WNW,297,3.1,4.0,98,0.00,,---,0.00,VWS V13.01,2013-02-12 05:57:00,
2013-02-12 01:02:00,47.5,47.0,0.00,NW,305,3.1,5.4,98,0.00,,---,0.00,VWS V13.01,2013-02-12 06:02:00,
2013-02-12 01:07:00,47.5,47.0,0.00,NW,305,0.0,5.4,98,0.00,,---,0.00,VWS V13.01,2013-02-12 06:07:00,
2013-02-12 01:12:00,47.3,46.8,0.00,NNW,335,2.2,5.4,98,0.00,,---,0.00,VWS V13.01,2013-02-12 06:12:00,
2013-02-12 01:17:00,47.3,46.8,0.00,West,265,0.0,5.4,98,0.00,,---,0.00,VWS V13.01,2013-02-12 06:17:00,
2013-02-12 01:22:00,47.3,46.8,0.00,SW,224,0.0,0.0,98,0.00,,---,0.00,VWS V13.01,2013-02-12 06:22:00,
2013-02-12 01:27:00,46.9,46.4,0.00,West,260,0.0,2.7,98,0.00,,---,0.00,VWS V13.01,2013-02-12 06:27:00,
2013-02-12 01:32:00,46.6,46.0,0.00,NE,35,0.0,2.7,98,0.00,,---,0.00,VWS V13.01,2013-02-12 06:32:00,
2013-02-12 01:37:00,46.6,45.2,0.00,NW,312,0.0,2.7,95,0.00,,---,0.00,VWS V13.01,2013-02-12 06:37:00,
2013-02-12 01:42:00,46.9,44.2,0.00,NW,312,0.0,0.0,90,0.00,,---,0.00,VWS V13.01,2013-02-12 06:42:00,
2013-02-12 01:47:00,46.8,43.4,0.00,NW,312,0.0,0.0,88,0.00,,---,0.00,VWS V13.01,2013-02-12 06:47:00,
2013-02-12 01:52:00,46.4,42.8,0.00,NW,312,0.0,0.0,87,0.00,,---,0.00,VWS V13.01,2013-02-12 06:52:00,
2013-02-12 01:58:00,46.0,41.2,0.00,NW,312,0.0,0.0,83,0.00,,---,0.00,VWS V13.01,2013-02-12 06:58:00,
2013-02-12 02:03:00,45.9,41.0,0.00,NW,312,0.0,0.0,83,0.00,,---,0.00,VWS V13.01,2013-02-12 07:03:00,
2013-02-12 02:08:00,45.5,40.7,0.00,NW,312,0.0,0.0,83,0.00,,---,0.00,VWS V13.01,2013-02-12 07:08:00,
2013-02-12 02:13:00,45.3,40.5,0.00,NW,312,0.0,0.0,83,0.00,,---,0.00,VWS V13.01,2013-02-12 07:13:00,
2013-02-12 02:18:00,45.0,40.1,0.00,NW,312,0.0,0.0,83,0.00,,---,0.00,VWS V13.01,2013-02-12 07:18:00,
2013-02-12 02:23:00,44.4,39.9,0.00,NW,312,0.0,0.0,84,0.00,,---,0.00,VWS V13.01,2013-02-12 07:23:00,
2013-02-12 02:28:00,44.1,39.5,0.00,NW,312,0.0,0.0,84,0.00,,---,0.00,VWS V13.01,2013-02-12 07:28:00,
2013-02-12 02:33:00,43.7,39.2,0.00,NW,312,0.0,0.0,84,0.00,,---,0.00,VWS V13.01,2013-02-12 07:33:00,
2013-02-12 02:38:00,43.3,39.1,0.00,NW,312,0.0,0.0,85,0.00,,---,0.00,VWS V13.01,2013-02-12 07:38:00,
2013-02-12 02:43:00,43.0,38.8,0.00,NW,312,0.0,0.0,85,0.00,,---,0.00,VWS V13.01,2013-02-12 07:43:00,
2013-02-12 02:48:00,42.8,38.6,0.00,NW,312,0.0,0.0,85,0.00,,---,0.00,VWS V13.01,2013-02-12 07:48:00,
2013-02-12 02:53:00,42.3,38.1,0.00,NW,312,0.0,0.0,85,0.00,,---,0.00,VWS V13.01,2013-02-12 07:53:00,
2013-02-12 02:58:00,42.1,37.9,0.00,NW,312,0.0,0.0,85,0.00,,---,0.00,VWS V13.01,2013-02-12 07:58:00,
2013-02-12 03:03:00,41.7,37.5,0.00,NW,312,0.0,0.0,85,0.00,,---,0.00,VWS V13.01,2013-02-12 08:03:00,
2013-02-12 03:08:00,41.5,37.7,0.00,NW,312,0.0,0.0,86,0.00,,---,0.00,VWS V13.01,2013-02-12 08:08:00,
2013-02-12 03:13:00,41.4,37.5,0.00,NW,312,0.0,0.0,86,0.00,,---,0.00,VWS V13.01,2013-02-12 08:13:00,
2013-02-12 03:18:00,41.2,37.3,0.00,NW,312,0.0,0.0,86,0.00,,---,0.00,VWS V13.01,2013-02-12 08:18:00,
2013-02-12 03:23:00,41.2,37.3,0.00,NW,312,0.0,0.0,86,0.00,,---,0.00,VWS V13.01,2013-02-12 08:23:00,
2013-02-12 03:28:00,41.2,37.0,0.00,NW,312,0.0,0.0,85,0.00,,---,0.00,VWS V13.01,2013-02-12 08:28:00,
2013-02-12 03:33:00,41.2,37.0,0.00,NW,312,0.0,0.0,85,0.00,,---,0.00,VWS V13.01,2013-02-12 08:33:00,
2013-02-12 03:38:00,41.2,37.0,0.00,NW,312,0.0,0.0,85,0.00,,---,0.00,VWS V13.01,2013-02-12 08:38:00,
2013-02-12 03:43:00,41.2,36.7,0.00,NW,312,0.0,0.0,84,0.00,,---,0.00,VWS V13.01,2013-02-12 08:43:00,
2013-02-12 03:48:00,41.0,36.5,0.00,NW,312,0.0,0.0,84,0.00,,---,0.00,VWS V13.01,2013-02-12 08:48:00,
2013-02-12 03:53:00,40.8,36.4,0.00,NW,312,0.0,0.0,84,0.00,,---,0.00,VWS V13.01,2013-02-12 08:53:00,
2013-02-12 03:58:00,40.5,36.0,0.00,NW,312,0.0,0.0,84,0.00,,---,0.00,VWS V13.01,2013-02-12 08:58:00,
2013-02-12 04:03:00,40.3,35.8,0.00,NW,312,0.0,0.0,84,0.00,,---,0.00,VWS V13.01,2013-02-12 09:03:00,
2013-02-12 04:08:00,39.9,35.5,0.00,North,2,0.0,2.7,84,0.00,,---,0.00,VWS V13.01,2013-02-12 09:08:00,
2013-02-12 04:13:00,39.7,35.3,0.00,North,2,0.0,2.7,84,0.00,,---,0.00,VWS V13.01,2013-02-12 09:13:00,
2013-02-12 04:18:00,39.6,35.1,0.00,North,2,0.0,2.7,84,0.00,,---,0.00,VWS V13.01,2013-02-12 09:18:00,
2013-02-12 04:23:00,39.2,34.8,0.00,North,2,0.0,0.0,84,0.00,,---,0.00,VWS V13.01,2013-02-12 09:23:00,
2013-02-12 04:28:00,39.2,34.8,0.00,North,2,0.0,0.0,84,0.00,,---,0.00,VWS V13.01,2013-02-12 09:28:00,
2013-02-12 04:33:00,38.8,34.4,0.00,NNW,344,0.0,0.0,84,0.00,,---,0.00,VWS V13.01,2013-02-12 09:33:00,
2013-02-12 04:38:00,38.8,34.4,0.00,NNW,344,0.0,0.0,84,0.00,,---,0.00,VWS V13.01,2013-02-12 09:38:00,
2013-02-12 04:43:00,38.8,34.4,0.00,NNW,344,0.0,0.0,84,0.00,,---,0.00,VWS V13.01,2013-02-12 09:43:00,
2013-02-12 04:48:00,38.7,34.2,0.00,NNW,344,0.0,0.0,84,0.00,,---,0.00,VWS V13.01,2013-02-12 09:48:00,
2013-02-12 04:53:00,38.5,34.1,0.00,NNW,344,0.0,0.0,84,0.00,,---,0.00,VWS V13.01,2013-02-12 09:53:00,
2013-02-12 04:58:00,38.3,33.9,0.00,NNW,344,0.0,0.0,84,0.00,,---,0.00,VWS V13.01,2013-02-12 09:58:00,
2013-02-12 05:03:00,38.1,33.7,0.00,NNW,344,0.0,0.0,84,0.00,,---,0.00,VWS V13.01,2013-02-12 10:03:00,
2013-02-12 05:08:00,37.9,33.5,0.00,NNW,344,0.0,0.0,84,0.00,,---,0.00,VWS V13.01,2013-02-12 10:08:00,
2013-02-12 05:14:00,37.9,33.5,0.00,NNW,344,0.0,0.0,84,0.00,,---,0.00,VWS V13.01,2013-02-12 10:14:00,
2013-02-12 05:19:00,37.9,33.5,0.00,NNW,344,0.0,0.0,84,0.00,,---,0.00,VWS V13.01,2013-02-12 10:19:00,
2013-02-12 05:24:00,37.9,33.5,0.00,NNW,344,0.0,0.0,84,0.00,,---,0.00,VWS V13.01,2013-02-12 10:24:00,
2013-02-12 05:29:00,37.9,33.5,0.00,NNW,344,0.0,0.0,84,0.00,,---,0.00,VWS V13.01,2013-02-12 10:29:00,
2013-02-12 05:34:00,38.1,33.7,0.00,NNW,344,0.0,0.0,84,0.00,,---,0.00,VWS V13.01,2013-02-12 10:34:00,
2013-02-12 05:39:00,38.1,33.7,0.00,NNW,344,0.0,0.0,84,0.00,,---,0.00,VWS V13.01,2013-02-12 10:39:00,
2013-02-12 05:44:00,38.1,33.7,0.00,NNW,344,0.0,0.0,84,0.00,,---,0.00,VWS V13.01,2013-02-12 10:44:00,
2013-02-12 05:49:00,38.3,33.9,0.00,NNW,344,0.0,0.0,84,0.00,,---,0.00,VWS V13.01,2013-02-12 10:49:00,
2013-02-12 05:54:00,38.3,33.6,0.00,NNW,344,0.0,0.0,83,0.00,,---,0.00,VWS V13.01,2013-02-12 10:54:00,
2013-02-12 05:59:00,38.3,33.6,0.00,NNW,344,0.0,0.0,83,0.00,,---,0.00,VWS V13.01,2013-02-12 10:59:00,
2013-02-12 06:04:00,38.3,33.6,0.00,North,4,0.0,0.0,83,0.00,,---,0.00,VWS V13.01,2013-02-12 11:04:00,
2013-02-12 06:09:00,38.3,33.6,0.00,North,4,0.0,0.0,83,0.00,,---,0.00,VWS V13.01,2013-02-12 11:09:00,
2013-02-12 06:14:00,38.5,33.8,0.00,North,4,0.0,0.0,83,0.00,,---,0.00,VWS V13.01,2013-02-12 11:14:00,
2013-02-12 06:19:00,38.5,33.8,0.00,North,4,0.0,0.0,83,0.00,,---,0.00,VWS V13.01,2013-02-12 11:19:00,
2013-02-12 06:24:00,38.3,33.3,0.00,North,4,0.0,0.0,82,0.00,,---,0.00,VWS V13.01,2013-02-12 11:24:00,
2013-02-12 06:29:00,38.3,33.3,0.00,North,4,0.0,0.0,82,0.00,,---,0.00,VWS V13.01,2013-02-12 11:29:00,
2013-02-12 06:34:00,38.1,32.8,0.00,North,4,0.0,0.0,81,0.00,,---,0.00,VWS V13.01,2013-02-12 11:34:00,
2013-02-12 06:39:00,38.1,32.8,0.00,North,4,0.0,0.0,81,0.00,,---,0.00,VWS V13.01,2013-02-12 11:39:00,
2013-02-12 06:44:00,38.1,32.8,0.00,North,4,0.0,0.0,81,0.00,,---,0.00,VWS V13.01,2013-02-12 11:44:00,
2013-02-12 06:49:00,38.1,32.5,0.00,North,4,0.0,0.0,80,0.00,,---,0.00,VWS V13.01,2013-02-12 11:49:00,
2013-02-12 06:54:00,37.9,32.3,0.00,North,4,0.0,0.0,80,0.00,,---,0.00,VWS V13.01,2013-02-12 11:54:00,
2013-02-12 06:59:00,37.9,32.3,0.00,NNW,331,0.0,0.0,80,0.00,,---,0.00,VWS V13.01,2013-02-12 11:59:00,
2013-02-12 07:04:00,37.8,32.2,0.00,North,1,0.0,2.2,80,0.00,,---,0.00,VWS V13.01,2013-02-12 12:04:00,
2013-02-12 07:09:00,37.6,32.3,0.00,North,1,0.0,2.2,81,0.00,,---,0.00,VWS V13.01,2013-02-12 12:09:00,
2013-02-12 07:14:00,37.4,32.1,0.00,North,1,0.0,2.2,81,0.00,,---,0.00,VWS V13.01,2013-02-12 12:14:00,
2013-02-12 07:19:00,37.4,32.1,0.00,North,1,0.0,2.2,81,0.00,,---,0.00,VWS V13.01,2013-02-12 12:19:00,
2013-02-12 07:24:00,37.4,32.1,0.00,North,1,0.0,0.0,81,0.00,,---,0.00,VWS V13.01,2013-02-12 12:24:00,
2013-02-12 07:29:00,37.4,32.1,0.00,North,1,0.0,0.0,81,0.00,,---,0.00,VWS V13.01,2013-02-12 12:29:00,
2013-02-12 07:35:00,37.4,32.1,0.00,NNW,331,4.0,4.0,81,0.00,,---,0.00,VWS V13.01,2013-02-12 12:35:00,
2013-02-12 07:40:00,37.6,32.3,0.00,NNW,331,0.0,4.0,81,0.00,,---,0.00,VWS V13.01,2013-02-12 12:40:00,
2013-02-12 07:45:00,37.8,32.5,0.00,NNW,331,0.0,0.0,81,0.00,,---,0.00,VWS V13.01,2013-02-12 12:45:00,
2013-02-12 07:50:00,37.8,32.5,0.00,NNW,331,0.0,0.0,81,0.00,,---,0.00,VWS V13.01,2013-02-12 12:50:00,
2013-02-12 07:55:00,37.9,32.6,0.00,NNW,331,0.0,0.0,81,0.00,,---,0.00,VWS V13.01,2013-02-12 12:55:00,
2013-02-12 08:00:00,37.9,32.6,0.00,NNW,331,0.0,0.0,81,0.00,,---,0.00,VWS V13.01,2013-02-12 13:00:00,
2013-02-12 08:05:00,38.1,32.8,0.00,NNW,331,0.0,0.0,81,0.00,,---,0.00,VWS V13.01,2013-02-12 13:05:00,
2013-02-12 08:10:00,38.3,32.7,0.00,NNW,331,0.0,0.0,80,0.00,,---,0.00,VWS V13.01,2013-02-12 13:10:00,
2013-02-12 08:15:00,38.7,33.3,0.00,NNW,331,0.0,0.0,81,0.00,,---,0.00,VWS V13.01,2013-02-12 13:15:00,
2013-02-12 08:20:00,39.4,34.0,0.00,NNW,331,0.0,0.0,81,0.00,,---,0.00,VWS V13.01,2013-02-12 13:20:00,
2013-02-12 08:25:00,40.5,34.8,0.00,NNW,331,0.0,0.0,80,0.00,,---,0.00,VWS V13.01,2013-02-12 13:25:00,
2013-02-12 08:30:00,40.6,34.7,0.00,NNW,331,0.0,0.0,79,0.00,,---,0.00,VWS V13.01,2013-02-12 13:30:00,
2013-02-12 08:35:00,41.0,35.0,0.00,NNW,331,0.0,0.0,79,0.00,,---,0.00,VWS V13.01,2013-02-12 13:35:00,
2013-02-12 08:40:00,41.5,35.8,0.00,NNW,331,0.0,0.0,80,0.00,,---,0.00,VWS V13.01,2013-02-12 13:40:00,
2013-02-12 08:45:00,41.7,36.0,0.00,NNW,331,0.0,0.0,80,0.00,,---,0.00,VWS V13.01,2013-02-12 13:45:00,
2013-02-12 08:50:00,41.7,36.3,0.00,NNW,331,0.0,0.0,81,0.00,,---,0.00,VWS V13.01,2013-02-12 13:50:00,
2013-02-12 08:55:00,42.3,36.9,0.00,NNW,331,0.0,0.0,81,0.00,,---,0.00,VWS V13.01,2013-02-12 13:55:00,
2013-02-12 09:00:00,42.8,37.4,0.00,NNW,331,0.0,0.0,81,0.00,,---,0.00,VWS V13.01,2013-02-12 14:00:00,
2013-02-12 09:05:00,43.5,38.1,0.00,NW,304,0.0,0.0,81,0.00,,---,0.00,VWS V13.01,2013-02-12 14:05:00,
2013-02-12 09:10:00,44.2,38.5,0.00,NNW,334,0.0,0.0,80,0.00,,---,0.00,VWS V13.01,2013-02-12 14:10:00,
2013-02-12 09:15:00,45.3,37.9,0.00,NW,324,0.0,5.4,75,0.00,,---,0.00,VWS V13.01,2013-02-12 14:15:00,
2013-02-12 09:20:00,45.5,35.9,0.00,NNW,331,0.0,0.0,69,0.00,,---,0.00,VWS V13.01,2013-02-12 14:20:00,
2013-02-12 09:25:00,45.3,35.4,0.00,WSW,254,0.0,0.0,68,0.00,,---,0.00,VWS V13.01,2013-02-12 14:25:00,
2013-02-12 09:31:00,45.9,34.4,0.00,NW,307,3.6,3.6,64,0.00,,---,0.00,VWS V13.01,2013-02-12 14:31:00,
2013-02-12 09:36:00,46.8,30.5,0.00,WNW,301,2.7,5.4,53,0.00,,---,0.00,VWS V13.01,2013-02-12 14:36:00,
2013-02-12 09:41:00,48.0,30.8,0.00,West,280,3.1,3.1,51,0.00,,---,0.00,VWS V13.01,2013-02-12 14:41:00,
2013-02-12 09:46:00,48.7,28.4,0.00,WNW,298,0.0,4.0,45,0.00,,---,0.00,VWS V13.01,2013-02-12 14:46:00,
2013-02-12 09:51:00,49.3,28.9,0.00,SW,224,4.0,4.0,45,0.00,,---,0.00,VWS V13.01,2013-02-12 14:51:00,
2013-02-12 09:56:00,49.8,30.4,0.00,West,280,3.6,4.0,47,0.00,,---,0.00,VWS V13.01,2013-02-12 14:56:00,
2013-02-12 10:01:00,50.0,27.8,0.00,WSW,247,3.6,3.6,42,0.00,,---,0.00,VWS V13.01,2013-02-12 15:01:00,
2013-02-12 10:06:00,50.2,26.2,0.00,West,266,2.2,4.0,39,0.00,,---,0.00,VWS V13.01,2013-02-12 15:06:00,
2013-02-12 10:11:00,50.7,25.4,0.00,SSW,205,4.0,5.8,37,0.00,,---,0.00,VWS V13.01,2013-02-12 15:11:00,
2013-02-12 10:16:00,51.1,27.0,0.00,West,264,3.1,5.8,39,0.00,,---,0.00,VWS V13.01,2013-02-12 15:16:00,
2013-02-12 10:21:00,51.4,26.7,0.00,West,273,0.0,4.0,38,0.00,,---,0.00,VWS V13.01,2013-02-12 15:21:00,
2013-02-12 10:26:00,51.8,27.0,0.00,West,281,4.0,4.0,38,0.00,,---,0.00,VWS V13.01,2013-02-12 15:26:00,
2013-02-12 10:31:00,52.2,26.0,0.00,SSW,193,3.6,6.3,36,0.00,,---,0.00,VWS V13.01,2013-02-12 15:31:00,
2013-02-12 10:36:00,52.7,26.5,0.00,SSW,211,3.6,6.3,36,0.00,,---,0.00,VWS V13.01,2013-02-12 15:36:00,
2013-02-12 10:41:00,53.1,26.8,0.00,NW,312,5.4,5.4,36,0.00,,---,0.00,VWS V13.01,2013-02-12 15:41:00,
2013-02-12 10:46:00,53.4,26.5,0.00,South,183,0.0,5.8,35,0.00,,---,0.00,VWS V13.01,2013-02-12 15:46:00,
2013-02-12 10:51:00,53.8,26.8,0.00,WSW,252,3.1,5.8,35,0.00,,---,0.00,VWS V13.01,2013-02-12 15:51:00,
2013-02-12 10:56:00,54.0,26.2,0.00,ESE,104,0.0,5.8,34,0.00,,---,0.00,VWS V13.01,2013-02-12 15:56:00,
2013-02-12 11:01:00,54.3,25.1,0.00,WNW,284,4.9,5.8,32,0.00,,---,0.00,VWS V13.01,2013-02-12 16:01:00,
2013-02-12 11:06:00,54.5,22.9,0.00,NW,313,6.3,7.6,29,0.00,,---,0.00,VWS V13.01,2013-02-12 16:06:00,
2013-02-12 11:11:00,55.0,24.2,0.00,NW,318,0.0,7.6,30,0.00,,---,0.00,VWS V13.01,2013-02-12 16:11:00,
2013-02-12 11:16:00,55.4,23.7,0.00,NW,314,5.4,7.6,29,0.00,,---,0.00,VWS V13.01,2013-02-12 16:16:00,
2013-02-12 11:21:00,55.9,24.2,0.00,WNW,299,3.1,3.6,29,0.00,,---,0.00,VWS V13.01,2013-02-12 16:21:00,
2013-02-12 11:26:00,56.3,23.6,0.00,SW,222,3.6,4.0,28,0.00,,---,0.00,VWS V13.01,2013-02-12 16:26:00,
2013-02-12 11:31:00,56.5,23.8,0.00,SSE,163,3.6,5.8,28,0.00,,---,0.00,VWS V13.01,2013-02-12 16:31:00,
2013-02-12 11:36:00,56.8,24.1,0.00,NE,41,3.1,7.6,28,0.00,,---,0.00,VWS V13.01,2013-02-12 16:36:00,
2013-02-12 11:41:00,57.2,23.5,0.00,NW,312,2.7,2.7,27,0.00,,---,0.00,VWS V13.01,2013-02-12 16:41:00,
2013-02-12 11:46:00,57.6,23.0,0.00,NNE,20,2.2,6.3,26,0.00,,---,0.00,VWS V13.01,2013-02-12 16:46:00,
2013-02-12 11:51:00,57.9,23.3,0.00,NNW,335,4.0,6.3,26,0.00,,---,0.00,VWS V13.01,2013-02-12 16:51:00,
2013-02-12 11:56:00,57.9,23.3,0.00,NNW,343,3.6,7.2,26,0.00,,---,0.00,VWS V13.01,2013-02-12 16:56:00,
2013-02-12 12:01:00,58.1,23.4,0.00,SW,224,0.0,5.4,26,0.00,,---,0.00,VWS V13.01,2013-02-12 17:01:00,
2013-02-12 12:06:00,58.5,23.7,0.00,West,273,2.7,5.4,26,0.00,,---,0.00,VWS V13.01,2013-02-12 17:06:00,
2013-02-12 12:11:00,58.8,24.0,0.00,NW,314,4.9,5.8,26,0.00,,---,0.00,VWS V13.01,2013-02-12 17:11:00,
2013-02-12 12:16:00,59.0,24.2,0.00,NW,316,4.0,5.8,26,0.00,,---,0.00,VWS V13.01,2013-02-12 17:16:00,
2013-02-12 12:21:00,59.2,23.4,0.00,NW,315,0.0,0.0,25,0.00,,---,0.00,VWS V13.01,2013-02-12 17:21:00,
2013-02-12 12:26:00,59.7,23.9,0.00,NNW,334,5.4,5.4,25,0.00,,---,0.00,VWS V13.01,2013-02-12 17:26:00,
2013-02-12 12:31:00,60.1,24.2,0.00,NNE,29,0.0,5.8,25,0.00,,---,0.00,VWS V13.01,2013-02-12 17:31:00,
2013-02-12 12:36:00,60.4,24.5,0.00,SW,222,0.0,5.8,25,0.00,,---,0.00,VWS V13.01,2013-02-12 17:36:00,
2013-02-12 12:41:00,60.4,24.5,0.00,SE,126,2.7,3.6,25,0.00,,---,0.00,VWS V13.01,2013-02-12 17:41:00,
2013-02-12 12:46:00,60.3,24.3,0.00,NNE,26,0.0,4.0,25,0.00,,---,0.00,VWS V13.01,2013-02-12 17:46:00,
2013-02-12 12:51:00,60.6,24.6,0.00,NNE,17,2.7,4.0,25,0.00,,---,0.00,VWS V13.01,2013-02-12 17:51:00,
2013-02-12 12:57:00,60.8,24.8,0.00,WNW,302,3.6,4.0,25,0.00,,---,0.00,VWS V13.01,2013-02-12 17:57:00,
2013-02-12 13:02:00,61.0,24.0,0.00,NW,323,0.0,3.6,24,0.00,,---,0.00,VWS V13.01,2013-02-12 18:02:00,
2013-02-12 13:07:00,61.3,25.2,0.00,East,81,3.6,3.6,25,0.00,,---,0.00,VWS V13.01,2013-02-12 18:07:00,
2013-02-12 13:12:00,61.0,24.0,0.00,ESE,122,6.3,6.3,24,0.00,,---,0.00,VWS V13.01,2013-02-12 18:12:00,
2013-02-12 13:17:00,61.0,24.0,0.00,SSW,193,2.7,6.3,24,0.00,,---,0.00,VWS V13.01,2013-02-12 18:17:00,
2013-02-12 13:22:00,61.5,24.4,0.00,SW,236,2.2,3.1,24,0.00,,---,0.00,VWS V13.01,2013-02-12 18:22:00,
2013-02-12 13:27:00,61.9,24.7,0.00,SSE,153,4.9,5.4,24,0.00,,---,0.00,VWS V13.01,2013-02-12 18:27:00,
2013-02-12 13:32:00,61.9,24.7,0.00,West,265,2.7,8.3,24,0.00,,---,0.00,VWS V13.01,2013-02-12 18:32:00,
2013-02-12 13:37:00,61.9,24.7,0.00,East,81,0.0,8.3,24,0.00,,---,0.00,VWS V13.01,2013-02-12 18:37:00,
2013-02-12 13:42:00,61.3,24.3,0.00,ESE,120,3.6,3.6,24,0.00,,---,0.00,VWS V13.01,2013-02-12 18:42:00,
2013-02-12 13:47:00,61.2,24.1,0.00,NW,316,0.0,4.0,24,0.00,,---,0.00,VWS V13.01,2013-02-12 18:47:00,
2013-02-12 13:52:00,61.7,24.6,0.00,West,274,0.0,5.4,24,0.00,,---,0.00,VWS V13.01,2013-02-12 18:52:00,
2013-02-12 13:57:00,61.7,24.6,0.00,NW,307,4.0,6.3,24,0.00,,---,0.00,VWS V13.01,2013-02-12 18:57:00,
2013-02-12 14:02:00,61.9,24.7,0.00,SSW,197,3.1,3.1,24,0.00,,---,0.00,VWS V13.01,2013-02-12 19:02:00,
2013-02-12 14:07:00,62.2,25.0,0.00,SW,234,2.7,7.6,24,0.00,,---,0.00,VWS V13.01,2013-02-12 19:07:00,
2013-02-12 14:12:00,62.1,24.9,0.00,WSW,249,2.7,7.6,24,0.00,,---,0.00,VWS V13.01,2013-02-12 19:12:00,
2013-02-12 14:17:00,62.1,24.9,0.00,SSE,165,0.0,7.6,24,0.00,,---,0.00,VWS V13.01,2013-02-12 19:17:00,
2013-02-12 14:22:00,62.4,25.2,0.00,SW,220,0.0,2.2,24,0.00,,---,0.00,VWS V13.01,2013-02-12 19:22:00,
2013-02-12 14:27:00,62.2,25.0,0.00,South,190,4.0,6.3,24,0.00,,---,0.00,VWS V13.01,2013-02-12 19:27:00,
2013-02-12 14:32:00,62.2,25.0,0.00,NE,41,0.0,6.3,24,0.00,,---,0.00,VWS V13.01,2013-02-12 19:32:00,
2013-02-12 14:37:00,61.9,24.7,0.00,SE,138,2.7,6.3,24,0.00,,---,0.00,VWS V13.01,2013-02-12 19:37:00,
2013-02-12 14:42:00,61.9,24.7,0.00,West,267,0.0,3.1,24,0.00,,---,0.00,VWS V13.01,2013-02-12 19:42:00,
2013-02-12 14:47:00,61.7,24.6,0.00,West,271,2.2,3.6,24,0.00,,---,0.00,VWS V13.01,2013-02-12 19:47:00,
2013-02-12 14:53:00,61.7,24.6,0.00,WSW,237,0.0,3.6,24,0.00,,---,0.00,VWS V13.01,2013-02-12 19:53:00,
2013-02-12 14:58:00,62.1,24.9,0.00,WNW,291,0.0,5.4,24,0.00,,---,0.00,VWS V13.01,2013-02-12 19:58:00,
2013-02-12 15:03:00,62.2,25.0,0.00,SW,224,4.5,4.5,24,0.00,,---,0.00,VWS V13.01,2013-02-12 20:03:00,
2013-02-12 15:08:00,62.1,24.9,0.00,NW,306,4.0,5.4,24,0.00,,---,0.00,VWS V13.01,2013-02-12 20:08:00,
2013-02-12 15:13:00,61.7,24.6,0.00,SW,227,3.6,5.4,24,0.00,,---,0.00,VWS V13.01,2013-02-12 20:13:00,
2013-02-12 15:18:00,61.3,24.3,0.00,NNW,331,0.0,7.6,24,0.00,,---,0.00,VWS V13.01,2013-02-12 20:18:00,
2013-02-12 15:23:00,61.2,24.1,0.00,WNW,293,0.0,3.1,24,0.00,,---,0.00,VWS V13.01,2013-02-12 20:23:00,
2013-02-12 15:28:00,61.0,24.0,0.00,NNW,339,0.0,4.9,24,0.00,,---,0.00,VWS V13.01,2013-02-12 20:28:00,
2013-02-12 15:33:00,60.6,23.6,0.00,North,353,0.0,4.9,24,0.00,,---,0.00,VWS V13.01,2013-02-12 20:33:00,
2013-02-12 15:38:00,60.4,23.5,0.00,SSW,209,0.0,4.9,24,0.00,,---,0.00,VWS V13.01,2013-02-12 20:38:00,
2013-02-12 15:43:00,60.1,23.2,0.00,WSW,257,2.7,4.0,24,0.00,,---,0.00,VWS V13.01,2013-02-12 20:43:00,
2013-02-12 15:48:00,59.9,23.0,0.00,NW,311,3.1,4.0,24,0.00,,---,0.00,VWS V13.01,2013-02-12 20:48:00,
2013-02-12 15:53:00,59.7,22.9,0.00,NNW,327,3.6,6.3,24,0.00,,---,0.00,VWS V13.01,2013-02-12 20:53:00,
2013-02-12 15:58:00,59.5,22.7,0.00,NW,318,0.0,6.3,24,0.00,,---,0.00,VWS V13.01,2013-02-12 20:58:00,
2013-02-12 16:03:00,59.4,22.6,0.00,NW,319,0.0,4.0,24,0.00,,---,0.00,VWS V13.01,2013-02-12 21:03:00,
2013-02-12 16:08:00,59.2,22.4,0.00,NW,313,0.0,4.0,24,0.00,,---,0.00,VWS V13.01,2013-02-12 21:08:00,
2013-02-12 16:13:00,59.0,22.3,0.00,West,260,0.0,4.0,24,0.00,,---,0.00,VWS V13.01,2013-02-12 21:13:00,
2013-02-12 16:18:00,58.8,22.1,0.00,NW,313,2.7,4.0,24,0.00,,---,0.00,VWS V13.01,2013-02-12 21:18:00,
2013-02-12 16:23:00,58.6,22.0,0.00,North,6,0.0,3.1,24,0.00,,---,0.00,VWS V13.01,2013-02-12 21:23:00,
2013-02-12 16:28:00,58.3,22.6,0.00,WNW,287,0.0,3.1,25,0.00,,---,0.00,VWS V13.01,2013-02-12 21:28:00,
2013-02-12 16:33:00,58.1,22.5,0.00,WSW,237,0.0,3.1,25,0.00,,---,0.00,VWS V13.01,2013-02-12 21:33:00,
2013-02-12 16:38:00,57.9,22.3,0.00,NNW,328,0.0,3.1,25,0.00,,---,0.00,VWS V13.01,2013-02-12 21:38:00,
2013-02-12 16:43:00,57.6,22.0,0.00,SW,236,0.0,0.0,25,0.00,,---,0.00,VWS V13.01,2013-02-12 21:43:00,
2013-02-12 16:48:00,57.2,21.7,0.00,SW,219,3.1,3.1,25,0.00,,---,0.00,VWS V13.01,2013-02-12 21:48:00,
2013-02-12 16:53:00,57.0,21.6,0.00,SW,214,0.0,3.1,25,0.00,,---,0.00,VWS V13.01,2013-02-12 21:53:00,
2013-02-12 16:58:00,56.8,21.4,0.00,SSW,202,0.0,3.6,25,0.00,,---,0.00,VWS V13.01,2013-02-12 21:58:00,
2013-02-12 17:03:00,56.8,21.4,0.00,SSW,202,0.0,0.0,25,0.00,,---,0.00,VWS V13.01,2013-02-12 22:03:00,
2013-02-12 17:08:00,56.8,21.4,0.00,SW,218,0.0,0.0,25,0.00,,---,0.00,VWS V13.01,2013-02-12 22:08:00,
2013-02-12 17:14:00,56.7,21.3,0.00,SW,233,0.0,0.0,25,0.00,,---,0.00,VWS V13.01,2013-02-12 22:14:00,
2013-02-12 17:19:00,56.3,21.0,0.00,SW,233,0.0,0.0,25,0.00,,---,0.00,VWS V13.01,2013-02-12 22:19:00,
2013-02-12 17:24:00,55.9,20.6,0.00,SW,233,0.0,0.0,25,0.00,,---,0.00,VWS V13.01,2013-02-12 22:24:00,
2013-02-12 17:29:00,55.6,21.3,0.00,SW,233,0.0,0.0,26,0.00,,---,0.00,VWS V13.01,2013-02-12 22:29:00,
2013-02-12 17:34:00,55.0,20.8,0.00,ENE,77,0.0,0.0,26,0.00,,---,0.00,VWS V13.01,2013-02-12 22:34:00,
2013-02-12 17:39:00,54.7,20.5,0.00,ENE,77,0.0,0.0,26,0.00,,---,0.00,VWS V13.01,2013-02-12 22:39:00,
2013-02-12 17:44:00,54.5,21.2,0.00,ENE,77,0.0,0.0,27,0.00,,---,0.00,VWS V13.01,2013-02-12 22:44:00,
2013-02-12 17:49:00,54.1,20.9,0.00,ENE,77,0.0,0.0,27,0.00,,---,0.00,VWS V13.01,2013-02-12 22:49:00,
2013-02-12 17:54:00,54.0,21.6,0.00,ENE,59,0.0,0.0,28,0.00,,---,0.00,VWS V13.01,2013-02-12 22:54:00,
2013-02-12 17:59:00,53.8,23.1,0.00,NNE,31,0.0,0.0,30,0.00,,---,0.00,VWS V13.01,2013-02-12 22:59:00,
2013-02-12 18:04:00,53.2,26.3,0.00,NNE,31,0.0,0.0,35,0.00,,---,0.00,VWS V13.01,2013-02-12 23:04:00,
2013-02-12 18:09:00,52.9,26.7,0.00,NNE,31,0.0,0.0,36,0.00,,---,0.00,VWS V13.01,2013-02-12 23:09:00,
2013-02-12 18:14:00,52.5,26.4,0.00,NNE,31,0.0,0.0,36,0.00,,---,0.00,VWS V13.01,2013-02-12 23:14:00,
2013-02-12 18:19:00,52.5,26.4,0.00,NNE,31,0.0,0.0,36,0.00,,---,0.00,VWS V13.01,2013-02-12 23:19:00,
2013-02-12 18:24:00,52.2,26.0,0.00,NNE,31,0.0,0.0,36,0.00,,---,0.00,VWS V13.01,2013-02-12 23:24:00,
2013-02-12 18:29:00,52.0,25.9,0.00,NE,39,0.0,0.0,36,0.00,,---,0.00,VWS V13.01,2013-02-12 23:29:00,
2013-02-12 18:34:00,51.8,25.7,0.00,NE,39,0.0,0.0,36,0.00,,---,0.00,VWS V13.01,2013-02-12 23:34:00,
2013-02-12 18:39:00,51.6,25.6,0.00,NE,39,0.0,0.0,36,0.00,,---,0.00,VWS V13.01,2013-02-12 23:39:00,
2013-02-12 18:44:00,51.6,25.6,0.00,NE,39,0.0,0.0,36,0.00,,---,0.00,VWS V13.01,2013-02-12 23:44:00,
2013-02-12 18:49:00,51.6,26.2,0.00,NE,39,0.0,0.0,37,0.00,,---,0.00,VWS V13.01,2013-02-12 23:49:00,
2013-02-12 18:54:00,51.4,26.0,0.00,NE,39,0.0,0.0,37,0.00,,---,0.00,VWS V13.01,2013-02-12 23:54:00,
2013-02-12 18:59:00,51.4,26.0,0.00,NE,39,0.0,0.0,37,0.00,,---,0.00,VWS V13.01,2013-02-12 23:59:00,
2013-02-12 19:04:00,51.3,25.9,0.00,NE,39,0.0,0.0,37,0.00,,---,0.00,VWS V13.01,2013-02-13 00:04:00,
2013-02-12 19:09:00,51.3,25.9,0.00,NE,39,0.0,0.0,37,0.00,,---,0.00,VWS V13.01,2013-02-13 00:09:00,
2013-02-12 19:14:00,50.9,26.8,0.00,NE,39,0.0,0.0,39,0.00,,---,0.00,VWS V13.01,2013-02-13 00:14:00,
2013-02-12 19:19:00,50.7,27.9,0.00,NE,39,0.0,0.0,41,0.00,,---,0.00,VWS V13.01,2013-02-13 00:19:00,
2013-02-12 19:24:00,50.4,27.0,0.00,NE,39,0.0,0.0,40,0.00,,---,0.00,VWS V13.01,2013-02-13 00:24:00,
2013-02-12 19:29:00,50.5,27.1,0.00,NE,39,0.0,0.0,40,0.00,,---,0.00,VWS V13.01,2013-02-13 00:29:00,
2013-02-12 19:35:00,50.5,27.1,0.00,NE,39,0.0,0.0,40,0.00,,---,0.00,VWS V13.01,2013-02-13 00:35:00,
2013-02-12 19:40:00,50.2,27.4,0.00,NE,39,0.0,0.0,41,0.00,,---,0.00,VWS V13.01,2013-02-13 00:40:00,
2013-02-12 19:45:00,50.0,29.0,0.00,NE,39,0.0,0.0,44,0.00,,---,0.00,VWS V13.01,2013-02-13 00:45:00,
2013-02-12 19:50:00,49.6,28.6,0.00,NE,39,0.0,0.0,44,0.00,,---,0.00,VWS V13.01,2013-02-13 00:50:00,
2013-02-12 19:55:00,49.6,28.6,0.00,NE,39,0.0,0.0,44,0.00,,---,0.00,VWS V13.01,2013-02-13 00:55:00,
2013-02-12 20:00:00,49.8,27.7,0.00,NE,39,0.0,0.0,42,0.00,,---,0.00,VWS V13.01,2013-02-13 01:00:00,
2013-02-12 20:05:00,49.8,28.8,0.00,NE,39,0.0,0.0,44,0.00,,---,0.00,VWS V13.01,2013-02-13 01:05:00,
2013-02-12 20:10:00,49.8,29.9,0.00,NNW,337,0.0,0.0,46,0.00,,---,0.00,VWS V13.01,2013-02-13 01:10:00,
2013-02-12 20:15:00,49.6,30.2,0.00,NNW,337,0.0,0.0,47,0.00,,---,0.00,VWS V13.01,2013-02-13 01:15:00,
2013-02-12 20:20:00,49.6,30.8,0.00,NNW,337,0.0,0.0,48,0.00,,---,0.00,VWS V13.01,2013-02-13 01:20:00,
2013-02-12 20:25:00,49.5,30.6,0.00,NNW,337,0.0,0.0,48,0.00,,---,0.00,VWS V13.01,2013-02-13 01:25:00,
2013-02-12 20:30:00,49.5,30.6,0.00,NNW,337,0.0,0.0,48,0.00,,---,0.00,VWS V13.01,2013-02-13 01:30:00,
2013-02-12 20:35:00,49.3,30.4,0.00,NNW,337,0.0,0.0,48,0.00,,---,0.00,VWS V13.01,2013-02-13 01:35:00,
2013-02-12 20:40:00,49.3,30.4,0.00,NNW,337,0.0,0.0,48,0.00,,---,0.00,VWS V13.01,2013-02-13 01:40:00,
2013-02-12 20:45:00,49.3,30.4,0.00,NNW,337,0.0,0.0,48,0.00,,---,0.00,VWS V13.01,2013-02-13 01:45:00,
2013-02-12 20:50:00,49.3,30.4,0.00,NNW,337,0.0,0.0,48,0.00,,---,0.00,VWS V13.01,2013-02-13 01:50:00,
2013-02-12 20:55:00,49.1,29.8,0.00,NNW,337,0.0,0.0,47,0.00,,---,0.00,VWS V13.01,2013-02-13 01:55:00,
2013-02-12 21:00:00,49.1,30.3,0.00,NNW,337,0.0,0.0,48,0.00,,---,0.00,VWS V13.01,2013-02-13 02:00:00,
2013-02-12 21:05:00,49.1,30.8,0.00,NNW,337,0.0,0.0,49,0.00,,---,0.00,VWS V13.01,2013-02-13 02:05:00,
2013-02-12 21:10:00,48.9,31.1,0.00,NNW,337,0.0,0.0,50,0.00,,---,0.00,VWS V13.01,2013-02-13 02:10:00,
2013-02-12 21:15:00,49.1,31.3,0.00,NNW,337,0.0,0.0,50,0.00,,---,0.00,VWS V13.01,2013-02-13 02:15:00,
2013-02-12 21:20:00,49.1,30.8,0.00,NNW,337,0.0,0.0,49,0.00,,---,0.00,VWS V13.01,2013-02-13 02:20:00,
2013-02-12 21:25:00,48.9,31.1,0.00,NNW,337,0.0,0.0,50,0.00,,---,0.00,VWS V13.01,2013-02-13 02:25:00,
2013-02-12 21:30:00,49.1,31.3,0.00,NNW,337,0.0,0.0,50,0.00,,---,0.00,VWS V13.01,2013-02-13 02:30:00,
2013-02-12 21:35:00,49.1,30.8,0.00,ENE,61,3.1,4.0,49,0.00,,---,0.00,VWS V13.01,2013-02-13 02:35:00,
2013-02-12 21:40:00,49.3,29.9,0.00,NNW,333,2.7,2.7,47,0.00,,---,0.00,VWS V13.01,2013-02-13 02:40:00,
2013-02-12 21:45:00,49.6,30.2,0.00,NNW,330,0.0,5.4,47,0.00,,---,0.00,VWS V13.01,2013-02-13 02:45:00,
2013-02-12 21:50:00,49.6,29.7,0.00,NNE,33,0.0,5.4,46,0.00,,---,0.00,VWS V13.01,2013-02-13 02:50:00,
2013-02-12 21:55:00,49.6,30.2,0.00,South,184,0.0,5.4,47,0.00,,---,0.00,VWS V13.01,2013-02-13 02:55:00,
2013-02-12 22:00:00,49.5,30.1,0.00,NNW,341,0.0,0.0,47,0.00,,---,0.00,VWS V13.01,2013-02-13 03:00:00,
2013-02-12 22:05:00,49.5,31.6,0.00,NNW,328,0.0,0.0,50,0.00,,---,0.00,VWS V13.01,2013-02-13 03:05:00,
2013-02-12 22:10:00,49.1,31.3,0.00,SSW,211,0.0,0.0,50,0.00,,---,0.00,VWS V13.01,2013-02-13 03:10:00,
2013-02-12 22:15:00,48.9,32.1,0.00,North,0,0.0,0.0,52,0.00,,---,0.00,VWS V13.01,2013-02-13 03:15:00,
2013-02-12 22:20:00,48.9,31.6,0.00,West,266,0.0,0.0,51,0.00,,---,0.00,VWS V13.01,2013-02-13 03:20:00,
2013-02-12 22:25:00,48.9,31.1,0.00,North,353,0.0,0.0,50,0.00,,---,0.00,VWS V13.01,2013-02-13 03:25:00,
2013-02-12 22:30:00,49.1,33.2,0.00,NW,308,0.0,0.0,54,0.00,,---,0.00,VWS V13.01,2013-02-13 03:30:00,
2013-02-12 22:35:00,49.3,31.5,0.00,WNW,284,0.0,0.0,50,0.00,,---,0.00,VWS V13.01,2013-02-13 03:35:00,
2013-02-12 22:40:00,49.1,32.2,0.00,WNW,284,0.0,0.0,52,0.00,,---,0.00,VWS V13.01,2013-02-13 03:40:00,
2013-02-12 22:45:00,49.1,29.2,0.00,ESE,122,2.2,4.0,46,0.00,,---,0.00,VWS V13.01,2013-02-13 03:45:00,
2013-02-12 22:50:00,49.5,31.1,0.00,SW,227,0.0,4.0,49,0.00,,---,0.00,VWS V13.01,2013-02-13 03:50:00,
2013-02-12 22:56:00,49.3,31.9,0.00,SSE,167,0.0,4.0,51,0.00,,---,0.00,VWS V13.01,2013-02-13 03:56:00,
2013-02-12 23:00:00,49.3,31.9,0.00,NNW,332,0.0,2.2,51,0.00,,---,0.00,VWS V13.01,2013-02-13 04:00:00,
2013-02-12 23:05:00,49.5,32.1,0.00,NW,309,0.0,2.2,51,0.00,,---,0.00,VWS V13.01,2013-02-13 04:05:00,
2013-02-12 23:11:00,49.5,32.6,0.00,South,180,0.0,2.2,52,0.00,,---,0.00,VWS V13.01,2013-02-13 04:11:00,
2013-02-12 23:16:00,49.1,33.7,0.00,SW,214,0.0,2.2,55,0.00,,---,0.00,VWS V13.01,2013-02-13 04:16:00,
2013-02-12 23:21:00,48.9,33.9,0.00,NW,323,2.7,2.7,56,0.00,,---,0.00,VWS V13.01,2013-02-13 04:21:00,
2013-02-12 23:26:00,48.7,35.1,0.00,South,173,2.2,5.8,59,0.00,,---,0.00,VWS V13.01,2013-02-13 04:26:00,
2013-02-12 23:31:00,48.4,35.6,0.00,SSW,192,0.0,5.8,61,0.00,,---,0.00,VWS V13.01,2013-02-13 04:31:00,
2013-02-12 23:36:00,48.2,36.6,0.00,NNE,19,0.0,5.8,64,0.00,,---,0.00,VWS V13.01,2013-02-13 04:36:00,
2013-02-12 23:41:00,47.8,36.7,0.00,North,9,0.0,0.0,65,0.00,,---,0.00,VWS V13.01,2013-02-13 04:41:00,
2013-02-12 23:46:00,47.5,36.7,0.00,North,8,0.0,0.0,66,0.00,,---,0.00,VWS V13.01,2013-02-13 04:46:00,
2013-02-12 23:51:00,47.3,36.9,0.00,North,8,0.0,0.0,67,0.00,,---,0.00,VWS V13.01,2013-02-13 04:51:00,
2013-02-12 23:56:00,47.1,37.5,0.00,North,8,0.0,0.0,69,0.00,,---,0.00,VWS V13.01,2013-02-13 04:56:00,